Time;durP1;ratioP1;P1;durP2;ratioP2;P2;SDS_P1;SDS_P2;PMS_P1;PMS_P2;Temp;Humidity;BMP_temperature;BMP_pressure;BME280_temperature;BME280_humidity;BME280_pressure;Samples;Min_cycle;Max_cycle;Signal;HPM_P1;HPM_P2
2023/03/30 00:01:29;;;;;;;1.90;0.50;;;25.30;92.90;;;;;;5091011;28;20183;-70
2023/03/30 00:03:57;;;;;;;1.60;0.30;;;25.60;95.80;;;;;;5092002;28;20622;-70
2023/03/30 00:06:25;;;;;;;1.43;0.40;;;25.80;92.70;;;;;;5092165;28;20262;-72
2023/03/30 00:08:57;;;;;;;2.33;0.43;;;25.80;91.60;;;;;;5091625;28;20316;-70
2023/03/30 00:11:26;;;;;;;1.50;0.30;;;25.70;93.50;;;;;;5091936;28;20263;-74
2023/03/30 00:13:54;;;;;;;3.67;0.40;;;25.90;91.70;;;;;;5092128;28;20191;-73
2023/03/30 00:16:22;;;;;;;2.90;0.50;;;26.00;90.00;;;;;;5095067;28;20195;-71
2023/03/30 00:18:50;;;;;;;2.37;0.57;;;26.00;88.80;;;;;;5103949;28;20186;-72
2023/03/30 00:21:19;;;;;;;2.57;0.40;;;26.50;89.00;;;;;;5111993;28;20271;-72
2023/03/30 00:23:47;;;;;;;1.80;0.50;;;26.70;86.60;;;;;;5105072;28;20210;-71
2023/03/30 00:26:15;;;;;;;2.53;0.73;;;26.20;87.00;;;;;;5100677;28;20170;-70
2023/03/30 00:28:43;;;;;;;2.83;0.60;;;26.00;90.00;;;;;;5104760;28;20264;-70
2023/03/30 00:31:10;;;;;;;1.27;0.67;;;26.30;91.10;;;;;;5091261;28;20559;-73
2023/03/30 00:33:38;;;;;;;2.57;0.53;;;26.60;90.00;;;;;;5091798;28;20175;-73
2023/03/30 00:36:05;;;;;;;1.37;0.30;;;26.80;82.80;;;;;;5096259;28;20177;-71
2023/03/30 00:38:33;;;;;;;1.30;0.50;;;26.10;84.20;;;;;;5109812;28;20188;-72
2023/03/30 00:41:01;;;;;;;5.30;0.50;;;26.00;85.00;;;;;;5111633;28;20175;-73
2023/03/30 00:43:29;;;;;;;2.57;0.20;;;25.90;88.30;;;;;;5111963;28;20206;-71
2023/03/30 00:45:57;;;;;;;0.20;0.20;;;26.20;86.20;;;;;;5109764;28;20182;-72
2023/03/30 00:48:39;;;;;;;1.60;0.30;;;26.70;83.80;;;;;;5103194;28;20189;-72
2023/03/30 00:51:10;;;;;;;2.77;0.57;;;26.90;79.20;;;;;;5101301;28;20183;-73
2023/03/30 00:53:40;;;;;;;0.43;0.30;;;27.70;77.20;;;;;;5097592;28;20178;-73
2023/03/30 00:56:11;;;;;;;3.27;0.40;;;27.80;71.00;;;;;;5096520;28;20586;-73
2023/03/30 00:58:40;;;;;;;0.97;0.40;;;27.30;72.10;;;;;;5094704;28;20270;-70
2023/03/30 01:01:12;;;;;;;1.07;0.30;;;27.40;69.70;;;;;;5090920;28;20191;-69
2023/03/30 01:03:46;;;;;;;3.40;0.40;;;27.10;62.50;;;;;;5101846;28;20250;-70
2023/03/30 01:06:23;;;;;;;0.33;0.33;;;26.60;61.30;;;;;;5091385;28;20661;-70
2023/03/30 01:08:54;;;;;;;1.73;0.40;;;26.80;54.70;;;;;;5090921;28;20224;-71
2023/03/30 01:11:22;;;;;;;0.63;0.40;;;27.10;66.00;;;;;;5091851;28;20191;-70
2023/03/30 01:13:58;;;;;;;0.73;0.30;;;27.40;61.50;;;;;;5113766;28;20271;-70
2023/03/30 01:16:38;;;;;;;0.30;0.30;;;27.10;58.00;;;;;;5111476;28;20202;-70
2023/03/30 01:19:42;;;;;;;0.83;0.30;;;27.40;64.70;;;;;;5094986;28;20214;-71
2023/03/30 01:22:40;;;;;;;1.17;0.37;;;27.90;65.80;;;;;;5105354;28;20194;-71
2023/03/30 01:25:32;;;;;;;0.83;0.30;;;28.30;57.10;;;;;;5079200;28;20187;-71
2023/03/30 01:28:03;;;;;;;1.80;0.30;;;28.40;53.50;;;;;;5115267;28;20223;-70
2023/03/30 01:30:45;;;;;;;1.33;0.40;;;27.80;57.80;;;;;;5115053;28;20905;-71
2023/03/30 01:33:43;;;;;;;1.37;0.40;;;27.70;54.50;;;;;;5109960;28;20657;-71
2023/03/30 01:36:40;;;;;;;0.53;0.30;;;27.70;53.20;;;;;;5094970;28;20179;-70
2023/03/30 01:39:20;;;;;;;1.17;0.40;;;27.80;56.20;;;;;;5094781;28;20171;-70
2023/03/30 01:42:10;;;;;;;1.47;0.30;;;27.60;53.40;;;;;;5093123;28;20638;-70
2023/03/30 01:44:55;;;;;;;2.53;0.30;;;27.10;51.50;;;;;;5094600;28;20232;-72
2023/03/30 01:47:35;;;;;;;2.47;0.37;;;26.90;52.20;;;;;;5094614;28;20241;-70
2023/03/30 01:50:03;;;;;;;1.53;0.50;;;27.30;49.80;;;;;;5108663;28;20266;-71
2023/03/30 01:52:39;;;;;;;4.33;0.50;;;27.90;52.20;;;;;;5106305;28;20201;-70
2023/03/30 01:55:13;;;;;;;0.97;0.40;;;28.50;49.70;;;;;;5104468;28;20208;-70
2023/03/30 01:57:43;;;;;;;2.70;0.50;;;28.20;42.50;;;;;;5100997;28;20207;-67
2023/03/30 02:00:13;;;;;;;0.30;0.27;;;28.00;44.90;;;;;;5114513;28;20290;-72
2023/03/30 02:03:09;;;;;;;1.27;0.33;;;27.90;46.40;;;;;;5114541;28;20261;-71
2023/03/30 02:05:37;;;;;;;0.90;0.30;;;28.30;46.40;;;;;;5101601;28;20188;-71
2023/03/30 02:08:16;;;;;;;0.97;0.20;;;28.30;44.00;;;;;;5097265;28;20207;-72
2023/03/30 02:10:46;;;;;;;0.40;0.30;;;28.20;40.60;;;;;;5093981;28;20171;-71
2023/03/30 02:13:15;;;;;;;2.50;0.30;;;28.30;45.60;;;;;;5102289;28;20226;-69
2023/03/30 02:15:47;;;;;;;1.07;0.30;;;28.60;45.10;;;;;;5114203;28;20894;-74
2023/03/30 02:18:14;;;;;;;0.87;0.30;;;28.90;43.60;;;;;;5097512;28;20194;-70
2023/03/30 02:20:41;;;;;;;1.20;0.40;;;28.70;43.30;;;;;;5107904;28;20714;-71
2023/03/30 02:23:10;;;;;;;0.80;0.30;;;28.40;41.50;;;;;;5104435;28;20214;-70
2023/03/30 02:25:38;;;;;;;0.40;0.20;;;28.30;40.10;;;;;;5105058;28;20255;-71
2023/03/30 02:28:08;;;;;;;1.07;0.27;;;28.70;43.80;;;;;;5097784;28;20228;-73
2023/03/30 02:30:41;;;;;;;0.50;0.30;;;28.70;40.10;;;;;;5093571;28;20168;-73
2023/03/30 02:33:16;;;;;;;0.77;0.30;;;27.90;39.30;;;;;;5093607;28;20203;-70
2023/03/30 02:36:08;;;;;;;0.93;0.33;;;27.30;42.10;;;;;;5092297;28;20175;-71
2023/03/30 02:38:45;;;;;;;0.47;0.30;;;27.70;41.60;;;;;;5103503;28;20182;-70
2023/03/30 02:42:05;;;;;;;0.60;0.20;;;27.90;40.30;;;;;;5113658;28;20261;-70
2023/03/30 02:45:10;;;;;;;1.80;0.43;;;27.60;37.80;;;;;;5014230;28;20799;-71
2023/03/30 02:48:14;;;;;;;0.60;0.30;;;27.10;40.30;;;;;;5087663;28;20188;-69
2023/03/30 02:51:00;;;;;;;2.10;0.50;;;27.10;42.10;;;;;;5086955;28;20247;-70
2023/03/30 02:53:44;;;;;;;1.20;0.60;;;27.60;39.30;;;;;;5092194;28;20214;-69
2023/03/30 02:56:37;;;;;;;1.43;0.50;;;27.50;40.70;;;;;;5092722;28;20180;-71
2023/03/30 02:59:11;;;;;;;0.70;0.40;;;27.60;40.00;;;;;;5101734;28;20174;-69
2023/03/30 03:02:05;;;;;;;4.23;0.60;;;27.60;40.10;;;;;;5112527;28;20194;-69
2023/03/30 03:04:33;;;;;;;0.43;0.23;;;27.40;39.80;;;;;;5093515;28;20227;-71
2023/03/30 03:07:01;;;;;;;1.10;0.53;;;27.40;37.20;;;;;;5092357;28;20198;-70
2023/03/30 03:09:29;;;;;;;1.33;0.30;;;27.20;40.80;;;;;;5092123;28;20638;-69
2023/03/30 03:11:56;;;;;;;0.30;0.30;;;27.10;36.70;;;;;;5092198;28;20317;-70
2023/03/30 03:14:25;;;;;;;0.33;0.30;;;26.50;36.70;;;;;;5092232;28;20193;-70
2023/03/30 03:16:53;;;;;;;0.90;0.70;;;26.50;39.20;;;;;;5091871;28;20584;-70
2023/03/30 03:19:21;;;;;;;4.90;1.00;;;27.30;38.90;;;;;;5106863;28;20187;-71
2023/03/30 03:21:49;;;;;;;3.73;1.20;;;27.40;39.60;;;;;;5092788;28;20186;-70
2023/03/30 03:24:17;;;;;;;6.03;1.10;;;26.30;41.50;;;;;;5091813;28;20728;-70
2023/03/30 03:26:45;;;;;;;2.43;1.03;;;25.70;42.40;;;;;;5103724;28;20233;-72
2023/03/30 03:29:12;;;;;;;1.57;0.50;;;25.80;43.70;;;;;;5096422;28;20593;-72
2023/03/30 03:31:40;;;;;;;1.93;0.40;;;25.30;43.70;;;;;;5097005;28;20190;-73
2023/03/30 03:34:08;;;;;;;1.17;0.70;;;25.40;46.30;;;;;;5112321;28;20182;-71
2023/03/30 03:36:35;;;;;;;0.53;0.40;;;25.70;46.00;;;;;;5111933;28;20181;-73
2023/03/30 03:39:02;;;;;;;0.73;0.50;;;25.70;45.00;;;;;;5110660;28;20239;-73
2023/03/30 03:41:30;;;;;;;0.27;0.27;;;25.50;45.30;;;;;;5110929;28;20273;-74
2023/03/30 03:43:57;;;;;;;0.37;0.20;;;25.50;46.10;;;;;;5111570;28;20221;-73
2023/03/30 03:46:25;;;;;;;5.67;0.37;;;26.30;41.20;;;;;;5111825;28;20516;-72
2023/03/30 03:48:52;;;;;;;0.50;0.30;;;26.60;38.90;;;;;;5112427;28;20603;-74
2023/03/30 03:51:19;;;;;;;0.50;0.30;;;26.90;41.80;;;;;;5109929;28;20162;-71
2023/03/30 03:53:48;;;;;;;1.17;0.40;;;27.10;38.10;;;;;;5091127;28;20179;-72
2023/03/30 03:56:15;;;;;;;0.40;0.27;;;26.40;37.60;;;;;;5091440;28;20180;-72
2023/03/30 03:58:43;;;;;;;3.50;0.90;;;25.90;39.20;;;;;;5105047;28;20264;-75
2023/03/30 04:01:13;;;;;;;0.40;0.30;;;25.30;38.10;;;;;;5108959;28;20178;-72
2023/03/30 04:03:40;;;;;;;0.40;0.40;;;24.90;40.30;;;;;;5091636;28;20198;-72
2023/03/30 04:06:08;;;;;;;2.47;0.50;;;25.10;40.80;;;;;;5097421;28;20243;-73
2023/03/30 04:08:35;;;;;;;1.03;0.60;;;24.90;40.50;;;;;;5110698;28;20198;-73
2023/03/30 04:11:08;;;;;;;3.40;1.07;;;24.70;38.90;;;;;;5101275;28;20252;-73
2023/03/30 04:13:36;;;;;;;0.87;0.40;;;25.20;41.10;;;;;;5091890;28;20187;-73
2023/03/30 04:16:08;;;;;;;0.40;0.40;;;24.80;37.60;;;;;;5093723;28;20260;-74
2023/03/30 04:18:36;;;;;;;1.20;0.40;;;24.50;38.10;;;;;;5109415;28;20182;-72
2023/03/30 04:21:05;;;;;;;4.93;0.40;;;24.60;39.30;;;;;;5092053;28;20183;-72
2023/03/30 04:23:34;;;;;;;0.90;0.40;;;25.10;41.50;;;;;;5101617;28;20321;-73
2023/03/30 04:26:06;;;;;;;0.43;0.40;;;25.70;40.50;;;;;;5102152;28;20217;-74
2023/03/30 04:28:35;;;;;;;1.63;0.70;;;26.30;36.50;;;;;;5111821;28;20625;-72
2023/03/30 04:31:05;;;;;;;1.83;0.50;;;26.90;36.80;;;;;;5111591;28;20261;-73
2023/03/30 04:33:36;;;;;;;1.23;0.50;;;26.60;34.50;;;;;;5098098;28;20212;-71
2023/03/30 04:36:04;;;;;;;1.60;0.50;;;26.80;37.10;;;;;;5091314;28;20214;-74
2023/03/30 04:38:35;;;;;;;3.03;0.30;;;26.50;36.00;;;;;;5090520;28;20190;-74
2023/03/30 04:41:04;;;;;;;0.30;0.30;;;26.20;38.30;;;;;;5091237;28;20179;-73
2023/03/30 04:43:31;;;;;;;1.37;0.40;;;26.30;36.90;;;;;;5091311;28;20222;-73
2023/03/30 04:45:58;;;;;;;0.70;0.37;;;26.20;34.30;;;;;;5090128;28;20187;-73
2023/03/30 04:48:26;;;;;;;0.43;0.30;;;26.00;33.10;;;;;;5095004;28;20207;-69
2023/03/30 04:50:54;;;;;;;0.93;0.30;;;26.00;32.90;;;;;;5095346;28;20176;-70
2023/03/30 04:53:21;;;;;;;0.37;0.37;;;26.00;36.20;;;;;;5095343;28;20596;-72
2023/03/30 04:55:50;;;;;;;1.33;0.30;;;26.20;35.10;;;;;;5095486;28;20179;-72
2023/03/30 04:58:18;;;;;;;0.93;0.40;;;26.20;34.20;;;;;;5095474;28;20262;-69
2023/03/30 05:00:46;;;;;;;0.30;0.30;;;26.10;33.70;;;;;;5097914;28;20556;-71
2023/03/30 05:03:13;;;;;;;1.53;0.53;;;26.10;34.40;;;;;;5094046;28;20309;-70
2023/03/30 05:05:41;;;;;;;1.50;0.40;;;26.00;35.60;;;;;;5095438;28;20218;-71
2023/03/30 05:08:08;;;;;;;0.33;0.30;;;26.30;37.40;;;;;;5115675;28;20210;-71
2023/03/30 05:10:36;;;;;;;0.33;0.23;;;26.20;33.80;;;;;;5115653;28;20167;-73
2023/03/30 05:13:05;;;;;;;0.63;0.30;;;26.00;35.30;;;;;;5115355;28;20769;-73
2023/03/30 05:15:33;;;;;;;0.43;0.37;;;25.80;33.60;;;;;;5115515;28;20290;-73
2023/03/30 05:18:00;;;;;;;1.70;0.40;;;25.40;35.00;;;;;;5115300;28;20551;-71
2023/03/30 05:20:27;;;;;;;1.20;0.33;;;25.10;35.30;;;;;;5114975;28;20178;-70
2023/03/30 05:22:55;;;;;;;1.27;0.40;;;25.20;35.20;;;;;;5115439;28;20221;-70
2023/03/30 05:25:22;;;;;;;1.30;0.47;;;25.20;36.00;;;;;;5104540;28;20175;-72
2023/03/30 05:27:50;;;;;;;0.63;0.40;;;25.10;36.60;;;;;;5101217;28;20183;-73
2023/03/30 05:30:17;;;;;;;0.53;0.40;;;24.70;36.60;;;;;;5111798;28;20187;-72
2023/03/30 05:32:45;;;;;;;1.37;0.40;;;24.80;37.50;;;;;;5108564;28;20184;-73
2023/03/30 05:35:12;;;;;;;1.60;0.47;;;25.00;38.30;;;;;;5107378;28;20187;-73
2023/03/30 05:37:40;;;;;;;0.33;0.30;;;25.10;37.00;;;;;;5094743;28;20585;-75
2023/03/30 05:40:10;;;;;;;1.23;0.40;;;25.20;38.70;;;;;;5109779;28;20189;-71
2023/03/30 05:42:37;;;;;;;0.53;0.30;;;25.40;37.50;;;;;;5104372;28;20681;-73
2023/03/30 05:45:06;;;;;;;0.40;0.30;;;25.50;38.30;;;;;;5104055;28;20206;-72
2023/03/30 05:47:34;;;;;;;0.40;0.40;;;25.60;35.20;;;;;;5098381;28;20172;-72
2023/03/30 05:50:02;;;;;;;2.00;0.37;;;25.50;34.60;;;;;;5096276;28;20191;-71
2023/03/30 05:52:29;;;;;;;0.40;0.30;;;25.40;35.50;;;;;;5095683;28;20186;-73
2023/03/30 05:54:56;;;;;;;1.27;0.50;;;25.40;36.40;;;;;;5095733;28;20182;-74
2023/03/30 05:57:24;;;;;;;0.67;0.40;;;25.40;36.20;;;;;;5095750;28;20638;-72
2023/03/30 05:59:51;;;;;;;1.33;0.50;;;25.30;37.50;;;;;;5094330;28;20175;-74
2023/03/30 06:02:19;;;;;;;1.07;0.60;;;25.30;37.70;;;;;;5095518;28;20686;-72
2023/03/30 06:04:46;;;;;;;0.57;0.40;;;25.20;39.10;;;;;;5095608;28;20183;-71
2023/03/30 06:07:13;;;;;;;2.57;0.60;;;24.80;38.10;;;;;;5095583;28;20183;-75
2023/03/30 06:09:41;;;;;;;1.83;0.50;;;24.40;37.10;;;;;;5095577;28;20179;-73
2023/03/30 06:12:08;;;;;;;0.90;0.40;;;24.20;39.50;;;;;;5107009;28;20226;-73
2023/03/30 06:14:35;;;;;;;1.43;0.40;;;24.10;40.40;;;;;;5114536;28;20606;-73
2023/03/30 06:17:03;;;;;;;0.47;0.40;;;23.90;40.00;;;;;;5115751;28;20185;-72
2023/03/30 06:19:30;;;;;;;1.93;0.63;;;23.80;40.70;;;;;;5115625;28;20637;-72
2023/03/30 06:21:58;;;;;;;1.37;0.77;;;23.70;40.90;;;;;;5108044;28;20186;-70
2023/03/30 06:24:25;;;;;;;1.33;0.77;;;23.70;42.90;;;;;;5094965;28;20214;-69
2023/03/30 06:26:54;;;;;;;0.90;0.60;;;23.90;42.40;;;;;;5095245;28;20221;-74
2023/03/30 06:29:21;;;;;;;0.93;0.40;;;24.20;39.20;;;;;;5111953;28;20201;-72
2023/03/30 06:31:50;;;;;;;1.23;0.40;;;24.20;38.50;;;;;;5113699;28;20214;-72
2023/03/30 06:34:17;;;;;;;0.77;0.40;;;24.30;40.50;;;;;;5106722;28;20187;-71
2023/03/30 06:36:46;;;;;;;0.43;0.40;;;24.40;39.20;;;;;;5095387;28;20175;-70
2023/03/30 06:39:14;;;;;;;1.90;0.60;;;24.40;39.60;;;;;;5095109;28;20171;-72
2023/03/30 06:41:41;;;;;;;0.97;0.50;;;24.40;40.40;;;;;;5108874;28;20273;-71
2023/03/30 06:44:13;;;;;;;0.57;0.47;;;24.40;38.50;;;;;;5099871;28;20214;-70
2023/03/30 06:46:41;;;;;;;0.60;0.40;;;24.30;39.90;;;;;;5097608;28;20186;-69
2023/03/30 06:49:10;;;;;;;1.97;0.50;;;24.40;40.00;;;;;;5094978;28;20236;-71
2023/03/30 06:51:38;;;;;;;2.43;0.50;;;24.30;38.70;;;;;;5096139;28;20184;-72
2023/03/30 06:54:05;;;;;;;1.27;0.50;;;24.20;38.80;;;;;;5099000;28;20633;-69
2023/03/30 06:56:33;;;;;;;1.27;0.40;;;24.10;39.00;;;;;;5114878;28;20175;-73
2023/03/30 06:59:00;;;;;;;1.80;0.60;;;24.10;39.60;;;;;;5113545;28;20221;-70
2023/03/30 07:01:27;;;;;;;1.83;0.50;;;24.10;40.90;;;;;;5104117;28;20174;-72
2023/03/30 07:03:55;;;;;;;2.03;0.60;;;24.10;41.60;;;;;;5094281;28;20297;-70
2023/03/30 07:06:23;;;;;;;1.27;0.40;;;24.00;41.20;;;;;;5098554;28;20204;-71
2023/03/30 07:08:50;;;;;;;0.90;0.50;;;23.90;40.60;;;;;;5094374;28;20183;-70
2023/03/30 07:11:17;;;;;;;1.60;0.67;;;23.80;41.40;;;;;;5095371;28;20258;-71
2023/03/30 07:13:45;;;;;;;1.80;0.40;;;23.60;39.50;;;;;;5094015;28;20596;-70
2023/03/30 07:16:12;;;;;;;0.57;0.40;;;23.40;38.50;;;;;;5093598;28;20199;-72
2023/03/30 07:18:40;;;;;;;3.80;0.60;;;23.20;38.80;;;;;;5093834;28;20233;-75
2023/03/30 07:21:07;;;;;;;0.80;0.60;;;23.10;39.10;;;;;;5094030;28;20173;-71
2023/03/30 07:23:35;;;;;;;2.77;0.60;;;22.90;40.10;;;;;;5094146;28;20207;-72
2023/03/30 07:26:02;;;;;;;0.67;0.40;;;22.80;41.10;;;;;;5094214;28;20179;-73
2023/03/30 07:28:29;;;;;;;2.43;0.50;;;22.70;41.10;;;;;;5094328;28;20262;-71
2023/03/30 07:31:04;;;;;;;1.93;0.67;;;22.60;40.80;;;;;;5094209;28;20178;-72
2023/03/30 07:33:32;;;;;;;0.50;0.40;;;22.50;41.70;;;;;;5094094;28;20527;-71
2023/03/30 07:35:59;;;;;;;3.30;0.60;;;22.40;42.80;;;;;;5093932;28;20614;-72
2023/03/30 07:38:27;;;;;;;2.30;0.70;;;22.30;43.40;;;;;;5093715;28;20227;-73
2023/03/30 07:40:54;;;;;;;4.23;0.60;;;22.20;44.20;;;;;;5093569;28;20501;-74
2023/03/30 07:43:22;;;;;;;2.67;0.53;;;22.10;44.60;;;;;;5092177;28;20253;-72
2023/03/30 07:45:49;;;;;;;1.03;0.67;;;22.10;45.50;;;;;;5093673;28;20167;-71
2023/03/30 07:48:17;;;;;;;2.77;0.70;;;22.00;46.90;;;;;;5093618;28;20178;-72
2023/03/30 07:50:44;;;;;;;2.03;0.70;;;21.90;47.20;;;;;;5093342;28;20171;-72
2023/03/30 07:53:11;;;;;;;2.47;0.73;;;21.90;47.60;;;;;;5093578;28;20314;-72
2023/03/30 07:55:39;;;;;;;1.00;0.60;;;21.80;49.30;;;;;;5093170;28;20630;-73
2023/03/30 07:58:06;;;;;;;0.80;0.50;;;21.70;47.80;;;;;;5093621;28;20175;-73
2023/03/30 08:00:34;;;;;;;2.33;0.50;;;21.60;48.40;;;;;;5093013;28;20169;-73
2023/03/30 08:03:01;;;;;;;1.10;0.60;;;21.60;49.10;;;;;;5092800;28;20603;-73
2023/03/30 08:05:28;;;;;;;1.33;0.53;;;21.50;49.20;;;;;;5093045;28;20167;-72
2023/03/30 08:07:56;;;;;;;1.73;0.80;;;21.50;49.80;;;;;;5093134;28;20179;-72
2023/03/30 08:10:23;;;;;;;1.93;0.70;;;21.50;50.10;;;;;;5092869;28;20182;-71
2023/03/30 08:12:54;;;;;;;2.00;0.50;;;21.50;51.50;;;;;;5092773;28;20258;-69
2023/03/30 08:15:22;;;;;;;0.70;0.60;;;21.40;52.00;;;;;;5093065;28;20179;-71
2023/03/30 08:17:49;;;;;;;3.23;0.53;;;21.40;53.60;;;;;;5092922;28;20518;-72
2023/03/30 08:20:17;;;;;;;2.40;0.70;;;21.30;54.20;;;;;;5092986;28;20180;-72
2023/03/30 08:22:44;;;;;;;0.70;0.50;;;21.20;56.40;;;;;;5090777;28;20662;-72
2023/03/30 08:25:11;;;;;;;3.60;0.50;;;21.10;57.70;;;;;;5091065;28;20233;-72
2023/03/30 08:27:39;;;;;;;2.10;0.67;;;21.00;58.80;;;;;;5093557;28;20177;-72
2023/03/30 08:30:07;;;;;;;1.53;0.53;;;21.00;61.60;;;;;;5091691;28;20266;-73
2023/03/30 08:32:34;;;;;;;3.40;0.60;;;20.90;62.10;;;;;;5093011;28;20171;-72
2023/03/30 08:35:02;;;;;;;1.17;0.50;;;20.80;64.80;;;;;;5092849;28;20190;-72
2023/03/30 08:37:29;;;;;;;3.40;0.50;;;20.70;67.80;;;;;;5092961;28;20186;-71
2023/03/30 08:39:56;;;;;;;1.87;0.50;;;20.70;69.60;;;;;;5092870;28;20550;-74
2023/03/30 08:42:46;;;;;;;1.00;0.50;;;20.60;73.60;;;;;;5091087;28;20220;-73
2023/03/30 08:45:14;;;;;;;0.83;0.50;;;20.60;73.80;;;;;;5093020;28;20216;-70
2023/03/30 08:47:47;;;;;;;0.87;0.60;;;20.50;73.10;;;;;;5092860;28;20183;-71
2023/03/30 08:50:33;;;;;;;0.73;0.50;;;20.50;75.80;;;;;;5092977;28;20255;-73
2023/03/30 08:53:02;;;;;;;0.60;0.60;;;20.40;76.80;;;;;;5092963;28;20642;-73
2023/03/30 08:55:40;;;;;;;1.13;0.40;;;20.30;80.00;;;;;;5092795;28;20197;-73
2023/03/30 08:58:45;;;;;;;3.23;0.70;;;20.30;82.40;;;;;;5093305;28;20174;-74
2023/03/30 09:01:36;;;;;;;2.60;0.50;;;20.20;89.10;;;;;;5074716;28;20669;-74
2023/03/30 09:04:26;;;;;;;0.70;0.60;;;20.10;88.20;;;;;;5092592;28;20302;-73
2023/03/30 09:07:08;;;;;;;0.40;0.40;;;20.00;91.70;;;;;;5093192;28;20174;-72
2023/03/30 09:09:42;;;;;;;1.67;0.57;;;20.00;92.60;;;;;;5092960;28;20239;-72
2023/03/30 09:12:43;;;;;;;1.60;0.60;;;19.90;94.20;;;;;;5092534;28;20224;-72
2023/03/30 09:15:35;;;;;;;0.57;0.53;;;19.80;95.10;;;;;;5089284;28;20207;-71
2023/03/30 09:18:06;;;;;;;1.37;0.60;;;19.70;97.20;;;;;;5092789;28;20178;-73
2023/03/30 09:20:37;;;;;;;0.63;0.47;;;19.60;99.10;;;;;;5091131;28;20211;-70
2023/03/30 09:23:06;;;;;;;1.67;0.60;;;19.60;99.90;;;;;;5092576;28;20543;-74
2023/03/30 09:25:35;;;;;;;1.60;0.50;;;19.50;99.90;;;;;;5091189;28;20266;-73
2023/03/30 09:28:05;;;;;;;0.83;0.53;;;19.50;99.90;;;;;;5091323;28;20513;-72
2023/03/30 09:30:50;;;;;;;2.73;0.57;;;19.50;99.90;;;;;;5092842;28;20179;-72
2023/03/30 09:33:42;;;;;;;3.13;0.60;;;19.50;99.90;;;;;;5094118;28;20182;-73
2023/03/30 09:36:36;;;;;;;1.73;0.60;;;19.40;99.90;;;;;;5095081;28;20182;-72
2023/03/30 09:39:26;;;;;;;1.47;0.80;;;19.40;99.90;;;;;;5095970;28;20181;-73
2023/03/30 09:42:26;;;;;;;2.27;0.80;;;19.40;99.90;;;;;;5096281;28;20524;-72
2023/03/30 09:45:00;;;;;;;1.80;0.70;;;19.30;99.90;;;;;;5096210;28;20210;-72
2023/03/30 09:47:32;;;;;;;2.43;0.53;;;19.30;99.90;;;;;;5095970;28;20525;-73
2023/03/30 09:50:02;;;;;;;1.17;0.70;;;19.20;99.90;;;;;;5096196;28;20167;-71
2023/03/30 09:52:38;;;;;;;2.37;0.60;;;19.20;99.90;;;;;;5096181;28;20172;-72
2023/03/30 09:55:30;;;;;;;1.07;0.60;;;19.20;99.90;;;;;;5094517;28;20624;-72
2023/03/30 09:58:20;;;;;;;0.67;0.60;;;19.10;99.90;;;;;;5095786;28;20187;-71
2023/03/30 10:01:05;;;;;;;1.20;0.50;;;19.00;99.90;;;;;;5095589;28;20634;-73
2023/03/30 10:03:34;;;;;;;0.83;0.50;;;18.90;99.90;;;;;;5095668;28;20571;-72
2023/03/30 10:06:07;;;;;;;3.10;0.83;;;18.80;99.90;;;;;;5095788;28;20179;-72
2023/03/30 10:08:55;;;;;;;0.97;0.63;;;18.80;99.90;;;;;;5095637;28;20278;-73
2023/03/30 10:11:39;;;;;;;1.77;0.53;;;18.60;99.90;;;;;;5095240;28;20181;-71
2023/03/30 10:14:17;;;;;;;2.93;0.60;;;18.50;99.90;;;;;;5095414;28;20195;-71
2023/03/30 10:16:44;;;;;;;1.57;0.60;;;18.30;99.90;;;;;;5095597;28;20186;-72
2023/03/30 10:19:23;;;;;;;1.33;1.00;;;18.20;99.90;;;;;;5095401;28;20286;-72
2023/03/30 10:21:54;;;;;;;2.83;0.63;;;18.10;99.90;;;;;;5095438;28;20182;-72
2023/03/30 10:24:24;;;;;;;2.07;0.70;;;18.00;99.90;;;;;;5095201;28;20222;-71
2023/03/30 10:26:58;;;;;;;1.80;0.70;;;18.00;99.90;;;;;;5093851;28;20545;-73
2023/03/30 10:29:30;;;;;;;3.10;0.70;;;17.90;99.90;;;;;;5095319;28;20216;-72
2023/03/30 10:32:09;;;;;;;1.33;0.63;;;17.70;99.90;;;;;;5095208;28;20167;-72
2023/03/30 10:34:47;;;;;;;1.83;0.70;;;17.60;99.90;;;;;;5095273;28;20177;-72
2023/03/30 10:37:33;;;;;;;4.50;0.80;;;17.50;99.90;;;;;;5095175;28;20167;-72
2023/03/30 10:40:09;;;;;;;1.50;0.67;;;17.40;99.90;;;;;;5094915;28;20206;-73
2023/03/30 10:42:38;;;;;;;3.90;1.00;;;17.30;99.90;;;;;;5094746;28;20177;-72
2023/03/30 10:45:07;;;;;;;3.97;1.00;;;17.20;99.90;;;;;;5094134;28;20184;-72
2023/03/30 10:48:33;;;;;;;1.03;0.70;;;17.20;99.90;;;;;;5094968;28;20175;-73
2023/03/30 10:51:11;;;;;;;4.63;1.03;;;17.10;99.90;;;;;;5032652;28;20181;-72
2023/03/30 10:54:03;;;;;;;2.40;1.00;;;17.00;99.90;;;;;;5032391;28;20199;-73
2023/03/30 10:56:39;;;;;;;1.70;0.70;;;17.00;99.90;;;;;;5078995;28;20524;-73
2023/03/30 10:59:43;;;;;;;2.23;0.97;;;16.90;99.90;;;;;;5094695;28;20178;-73
2023/03/30 11:02:36;;;;;;;2.17;0.60;;;16.90;99.90;;;;;;5070864;28;20237;-72
2023/03/30 11:05:21;;;;;;;2.50;0.60;;;16.90;99.90;;;;;;5095076;28;20229;-72
2023/03/30 11:07:56;;;;;;;3.03;0.80;;;16.80;99.90;;;;;;5093061;28;20703;-69
2023/03/30 11:10:32;;;;;;;0.70;0.60;;;16.70;99.90;;;;;;5104282;28;20177;-72
2023/03/30 11:13:11;;;;;;;2.10;0.70;;;16.60;99.90;;;;;;5103993;28;20322;-72
2023/03/30 11:16:07;;;;;;;1.13;0.50;;;16.50;99.90;;;;;;5094187;28;20168;-71
2023/03/30 11:18:38;;;;;;;0.80;0.70;;;16.50;99.90;;;;;;5098843;28;20206;-72
2023/03/30 11:21:32;;;;;;;1.43;0.60;;;16.40;99.90;;;;;;5114212;28;20174;-73
2023/03/30 11:24:21;;;;;;;1.63;0.80;;;16.30;99.90;;;;;;5098894;28;20315;-73
2023/03/30 11:27:10;;;;;;;1.47;0.77;;;16.20;99.90;;;;;;5096308;28;20232;-72
2023/03/30 11:29:44;;;;;;;2.00;1.13;;;16.20;99.90;;;;;;5101483;28;20179;-72
2023/03/30 11:32:27;;;;;;;3.77;1.03;;;16.00;99.90;;;;;;5104522;28;20181;-73
2023/03/30 11:35:00;;;;;;;1.87;1.10;;;16.00;99.90;;;;;;5114158;28;20255;-73
2023/03/30 11:37:47;;;;;;;3.33;1.23;;;15.90;99.90;;;;;;5113604;28;20300;-71
2023/03/30 11:40:15;;;;;;;1.73;1.00;;;15.90;99.90;;;;;;5112875;28;20179;-72
2023/03/30 11:42:44;;;;;;;2.60;1.10;;;15.80;99.90;;;;;;5113823;28;20265;-73
2023/03/30 11:45:25;;;;;;;8.30;1.07;;;15.80;99.90;;;;;;5113585;27;20190;-72
2023/03/30 11:48:25;;;;;;;3.53;0.80;;;15.80;99.90;;;;;;5113647;28;20174;-72
2023/03/30 11:51:20;;;;;;;1.20;0.73;;;15.70;99.90;;;;;;5091965;28;20194;-71
2023/03/30 11:53:54;;;;;;;5.53;1.10;;;15.70;99.90;;;;;;5092764;28;20602;-72
2023/03/30 11:56:28;;;;;;;2.70;1.20;;;15.70;99.90;;;;;;5093198;28;20198;-71
2023/03/30 11:59:05;;;;;;;3.00;0.80;;;15.70;99.90;;;;;;5096976;28;20178;-72
2023/03/30 12:01:41;;;;;;;3.00;0.70;;;15.70;99.90;;;;;;5113252;28;20175;-72
2023/03/30 12:04:20;;;;;;;1.93;0.90;;;15.80;99.90;;;;;;5113608;28;20202;-70
2023/03/30 12:06:54;;;;;;;1.90;0.80;;;15.90;99.90;;;;;;5113522;28;20182;-73
2023/03/30 12:09:53;;;;;;;1.80;1.00;;;16.00;99.90;;;;;;5112742;28;20170;-71
2023/03/30 12:12:31;;;;;;;1.70;0.70;;;16.00;99.90;;;;;;5113044;28;20676;-69
2023/03/30 12:15:15;;;;;;;3.27;0.83;;;16.00;99.90;;;;;;5113192;28;20182;-70
2023/03/30 12:18:23;;;;;;;1.83;0.80;;;15.90;99.90;;;;;;5112692;28;20213;-68
2023/03/30 12:20:56;;;;;;;1.37;0.80;;;15.90;99.90;;;;;;5112937;28;20182;-71
2023/03/30 12:23:41;;;;;;;3.30;1.17;;;15.80;99.90;;;;;;5107852;28;20700;-70
2023/03/30 12:26:09;;;;;;;1.67;0.90;;;15.60;99.90;;;;;;5093308;28;20183;-69
2023/03/30 12:28:57;;;;;;;2.40;0.90;;;15.60;99.90;;;;;;5092540;28;20534;-68
2023/03/30 12:31:49;;;;;;;3.17;1.10;;;15.60;99.90;;;;;;5106290;28;20207;-69
2023/03/30 12:34:17;;;;;;;0.73;0.60;;;15.60;99.90;;;;;;5063302;28;20199;-69
2023/03/30 12:36:56;;;;;;;1.00;0.80;;;15.60;99.90;;;;;;5093002;28;20248;-69
2023/03/30 12:39:33;;;;;;;2.87;0.80;;;15.60;99.90;;;;;;5092717;28;20182;-70
2023/03/30 12:42:36;;;;;;;4.00;1.13;;;15.70;99.90;;;;;;5092711;28;20581;-71
2023/03/30 12:45:31;;;;;;;3.80;1.13;;;15.70;99.90;;;;;;5080457;28;20213;-71
2023/03/30 12:48:15;;;;;;;1.17;0.83;;;15.80;99.90;;;;;;5092465;28;20580;-70
2023/03/30 12:51:12;;;;;;;1.50;0.80;;;15.80;99.90;;;;;;5091431;28;20595;-69
2023/03/30 12:54:00;;;;;;;1.50;0.77;;;15.80;99.90;;;;;;5103946;28;20192;-69
2023/03/30 12:56:34;;;;;;;3.07;0.80;;;15.80;99.90;;;;;;5092685;28;20224;-68
2023/03/30 12:59:36;;;;;;;1.13;0.67;;;15.80;99.90;;;;;;5100784;28;20185;-69
2023/03/30 13:02:29;;;;;;;0.70;0.70;;;15.70;99.90;;;;;;5093575;28;20189;-70
2023/03/30 13:04:57;;;;;;;2.80;1.00;;;15.60;99.90;;;;;;5092505;28;20218;-71
2023/03/30 13:07:30;;;;;;;3.50;0.80;;;15.50;99.90;;;;;;5101044;28;20174;-70
2023/03/30 13:10:38;;;;;;;5.53;1.00;;;15.40;99.90;;;;;;5101667;28;20218;-70
2023/03/30 13:13:16;;;;;;;2.03;0.97;;;15.30;99.90;;;;;;5014159;28;20245;-70
2023/03/30 13:15:54;;;;;;;3.57;1.00;;;15.20;99.90;;;;;;5033338;28;20205;-71
2023/03/30 13:18:40;;;;;;;2.50;1.00;;;15.10;99.90;;;;;;5077859;28;20200;-71
2023/03/30 13:21:23;;;;;;;1.17;0.70;;;15.10;99.90;;;;;;5100369;28;20179;-70
2023/03/30 13:24:23;;;;;;;3.27;0.90;;;15.00;99.90;;;;;;5102113;28;20245;-71
2023/03/30 13:26:52;;;;;;;1.33;0.70;;;15.00;99.90;;;;;;5115969;28;20657;-72